Time;durP1;ratioP1;P1;durP2;ratioP2;P2;SDS_P1;SDS_P2;PMS_P1;PMS_P2;Temp;Humidity;BMP_temperature;BMP_pressure;BME280_temperature;BME280_humidity;BME280_pressure;Samples;Min_cycle;Max_cycle;Signal;HPM_P1;HPM_P2
2022/07/02 00:00:45;;;;;;;4.13;2.60;;;;;;;;;;5110497;28;20039;-64
2022/07/02 00:03:13;;;;;;;5.78;2.58;;;;;;;;;;5107740;28;20039;-64
2022/07/02 00:05:48;;;;;;;8.38;2.67;;;;;;;;;;5096133;28;20642;-64
2022/07/02 00:08:17;;;;;;;4.35;2.80;;;;;;;;;;5107153;28;20044;-63
2022/07/02 00:10:43;;;;;;;4.22;2.10;;;;;;;;;;5099594;28;20036;-64
2022/07/02 00:13:10;;;;;;;3.92;2.20;;;;;;;;;;5106110;28;20435;-64
2022/07/02 00:15:36;;;;;;;4.45;2.20;;;;;;;;;;5094725;28;20124;-64
2022/07/02 00:18:02;;;;;;;10.77;3.78;;;;;;;;;;5098711;28;20531;-64
2022/07/02 00:20:28;;;;;;;5.53;2.40;;;;;;;;;;5097730;28;20301;-63
2022/07/02 00:22:55;;;;;;;4.15;2.75;;;;;;;;;;5097457;28;20042;-64
2022/07/02 00:25:21;;;;;;;4.20;2.50;;;;;;;;;;5107643;28;20036;-63
2022/07/02 00:27:47;;;;;;;4.43;2.40;;;;;;;;;;5104820;28;20789;-63
2022/07/02 00:30:14;;;;;;;5.35;2.20;;;;;;;;;;5109695;28;20031;-64
2022/07/02 00:32:42;;;;;;;8.55;3.40;;;;;;;;;;5107579;28;20303;-63
2022/07/02 00:35:13;;;;;;;3.72;1.80;;;;;;;;;;5099844;28;20036;-64
2022/07/02 00:37:39;;;;;;;4.65;3.00;;;;;;;;;;5108434;28;20512;-64
2022/07/02 00:40:06;;;;;;;4.35;3.00;;;;;;;;;;5108020;28;20079;-64
2022/07/02 00:42:35;;;;;;;6.13;2.90;;;;;;;;;;5098552;28;20039;-64
2022/07/02 00:45:01;;;;;;;5.10;2.92;;;;;;;;;;5098332;28;20474;-63
2022/07/02 00:47:27;;;;;;;4.80;2.58;;;;;;;;;;5108414;28;20398;-64
2022/07/02 00:49:53;;;;;;;4.45;2.90;;;;;;;;;;5107273;28;20614;-64
2022/07/02 00:52:20;;;;;;;6.40;2.70;;;;;;;;;;5108773;28;20036;-63
2022/07/02 00:54:46;;;;;;;5.53;2.65;;;;;;;;;;5100659;28;20044;-63
2022/07/02 00:57:12;;;;;;;4.72;2.55;;;;;;;;;;5124096;27;20409;-64
2022/07/02 00:59:39;;;;;;;6.93;3.15;;;;;;;;;;5104708;28;20032;-63
2022/07/02 01:02:07;;;;;;;4.32;2.35;;;;;;;;;;5103905;28;20467;-63
2022/07/02 01:04:34;;;;;;;5.65;3.00;;;;;;;;;;5102436;28;20368;-64
2022/07/02 01:07:05;;;;;;;4.28;2.38;;;;;;;;;;5109817;28;20162;-64
2022/07/02 01:12:24;;;;;;;4.72;2.42;;;;;;;;;;5108562;28;20501;-64
2022/07/02 01:14:50;;;;;;;8.10;3.05;;;;;;;;;;5104856;28;20401;-63
2022/07/02 01:17:16;;;;;;;4.03;2.92;;;;;;;;;;5114239;27;20038;-63
2022/07/02 01:19:42;;;;;;;5.07;2.80;;;;;;;;;;5106868;27;20078;-63
2022/07/02 01:22:21;;;;;;;9.88;2.75;;;;;;;;;;5110507;28;20046;-63
2022/07/02 01:24:49;;;;;;;8.73;2.40;;;;;;;;;;5109987;28;20557;-63
2022/07/02 01:27:15;;;;;;;5.97;3.45;;;;;;;;;;5111560;28;20135;-63
2022/07/02 01:29:41;;;;;;;3.97;2.50;;;;;;;;;;5108652;28;20180;-64
2022/07/02 01:32:08;;;;;;;7.20;2.80;;;;;;;;;;5111755;28;20122;-63
2022/07/02 01:34:55;;;;;;;6.53;2.30;;;;;;;;;;5114272;27;20042;-63
2022/07/02 01:37:22;;;;;;;5.07;2.90;;;;;;;;;;5096433;28;20071;-63
2022/07/02 01:39:48;;;;;;;7.85;3.40;;;;;;;;;;5110581;28;20405;-63
2022/07/02 01:42:15;;;;;;;3.33;2.38;;;;;;;;;;5111309;28;20040;-63
2022/07/02 01:44:41;;;;;;;5.20;2.53;;;;;;;;;;5103103;28;20036;-64
2022/07/02 01:47:08;;;;;;;9.98;2.65;;;;;;;;;;5111301;28;20099;-63
2022/07/02 01:49:35;;;;;;;6.78;2.88;;;;;;;;;;5108524;27;20028;-63
2022/07/02 01:52:02;;;;;;;5.20;2.40;;;;;;;;;;5105032;28;20135;-64
2022/07/02 01:54:28;;;;;;;5.95;2.83;;;;;;;;;;5107401;28;20157;-63
2022/07/02 01:56:54;;;;;;;4.53;2.10;;;;;;;;;;5124023;27;20043;-63
2022/07/02 01:59:20;;;;;;;5.35;2.67;;;;;;;;;;5110099;28;20135;-63
2022/07/02 02:01:46;;;;;;;4.20;2.60;;;;;;;;;;5109725;28;20048;-64
2022/07/02 02:04:12;;;;;;;4.20;2.72;;;;;;;;;;5112429;27;20062;-64
2022/07/02 02:06:39;;;;;;;4.55;2.55;;;;;;;;;;5111135;27;20042;-63
2022/07/02 02:09:06;;;;;;;4.78;2.90;;;;;;;;;;5110159;28;20089;-63
2022/07/02 02:11:32;;;;;;;6.53;3.13;;;;;;;;;;5107225;28;20544;-64
2022/07/02 02:13:58;;;;;;;8.35;3.28;;;;;;;;;;5107935;28;20051;-64
2022/07/02 02:16:28;;;;;;;6.60;4.00;;;;;;;;;;5110091;28;20396;-63
2022/07/02 02:18:56;;;;;;;7.03;3.60;;;;;;;;;;5108742;28;20043;-63
2022/07/02 02:21:22;;;;;;;6.85;3.55;;;;;;;;;;5112302;27;20471;-64
2022/07/02 02:23:48;;;;;;;7.75;3.35;;;;;;;;;;5110403;28;20110;-64
2022/07/02 02:26:14;;;;;;;7.13;3.80;;;;;;;;;;5107040;28;20118;-64
2022/07/02 02:28:40;;;;;;;7.97;3.38;;;;;;;;;;5109847;28;20039;-64
2022/07/02 02:31:06;;;;;;;3.95;2.80;;;;;;;;;;5104739;28;20217;-63
2022/07/02 02:33:33;;;;;;;5.38;3.75;;;;;;;;;;5101084;28;20561;-63
2022/07/02 02:35:59;;;;;;;8.10;3.60;;;;;;;;;;5112128;27;20036;-63
2022/07/02 02:38:25;;;;;;;5.07;2.88;;;;;;;;;;5107518;28;20063;-63
2022/07/02 02:40:51;;;;;;;8.15;3.55;;;;;;;;;;5103257;28;20401;-63
2022/07/02 02:43:18;;;;;;;6.38;3.00;;;;;;;;;;5101001;28;20042;-63
2022/07/02 02:45:44;;;;;;;10.43;3.53;;;;;;;;;;5109671;28;20497;-63
2022/07/02 02:48:10;;;;;;;6.55;3.03;;;;;;;;;;5107370;28;20067;-63
2022/07/02 02:50:36;;;;;;;7.70;3.65;;;;;;;;;;5105804;27;20405;-63
2022/07/02 02:53:03;;;;;;;7.03;3.70;;;;;;;;;;5109831;28;20389;-63
2022/07/02 02:55:29;;;;;;;6.18;3.38;;;;;;;;;;5108650;28;20222;-63
2022/07/02 02:57:55;;;;;;;6.15;3.50;;;;;;;;;;5102549;28;20028;-63
2022/07/02 03:00:22;;;;;;;5.15;3.10;;;;;;;;;;5107462;27;20039;-63
2022/07/02 03:02:48;;;;;;;5.15;3.35;;;;;;;;;;5108704;28;20043;-63
2022/07/02 03:05:14;;;;;;;7.72;4.03;;;;;;;;;;5106076;28;20028;-63
2022/07/02 03:07:40;;;;;;;5.97;3.40;;;;;;;;;;5113075;27;20627;-63
2022/07/02 03:10:07;;;;;;;7.55;3.15;;;;;;;;;;5107129;28;20039;-63
2022/07/02 03:12:33;;;;;;;6.45;3.70;;;;;;;;;;5108903;28;20482;-63
2022/07/02 03:14:59;;;;;;;5.35;3.72;;;;;;;;;;5110152;27;20051;-63
2022/07/02 03:17:25;;;;;;;6.63;3.72;;;;;;;;;;5106603;27;20114;-63
2022/07/02 03:19:51;;;;;;;6.60;3.75;;;;;;;;;;5105325;28;20169;-63
2022/07/02 03:22:18;;;;;;;6.15;4.90;;;;;;;;;;5108783;27;20039;-63
2022/07/02 03:24:44;;;;;;;6.78;3.90;;;;;;;;;;5108851;28;20039;-64
2022/07/02 03:27:10;;;;;;;13.82;4.00;;;;;;;;;;5098909;28;20042;-63
2022/07/02 03:29:36;;;;;;;7.15;4.13;;;;;;;;;;5112467;27;20039;-63
2022/07/02 03:32:02;;;;;;;6.38;3.83;;;;;;;;;;5106253;27;20496;-63
2022/07/02 03:34:28;;;;;;;6.68;4.40;;;;;;;;;;5110357;27;20509;-63
2022/07/02 03:36:54;;;;;;;4.72;3.70;;;;;;;;;;5110814;27;20131;-63
2022/07/02 03:39:21;;;;;;;7.00;3.78;;;;;;;;;;5105897;28;20419;-64
2022/07/02 03:41:47;;;;;;;5.05;3.80;;;;;;;;;;5105659;28;20525;-63
2022/07/02 03:44:13;;;;;;;5.93;3.97;;;;;;;;;;5103404;28;20063;-64
2022/07/02 03:46:39;;;;;;;11.77;4.45;;;;;;;;;;5102587;28;20456;-63
2022/07/02 03:49:05;;;;;;;5.65;4.20;;;;;;;;;;5107056;28;20038;-63
2022/07/02 03:51:31;;;;;;;7.88;5.88;;;;;;;;;;5109937;28;20031;-63
2022/07/02 03:53:58;;;;;;;10.55;4.38;;;;;;;;;;5103014;28;20050;-64
2022/07/02 03:56:24;;;;;;;6.82;4.32;;;;;;;;;;5105768;28;20038;-63
2022/07/02 03:58:50;;;;;;;8.43;4.35;;;;;;;;;;5107275;28;20157;-63
2022/07/02 04:01:16;;;;;;;10.52;5.20;;;;;;;;;;5108963;28;20036;-63
2022/07/02 04:03:42;;;;;;;9.90;5.22;;;;;;;;;;5106333;28;20439;-63
2022/07/02 04:06:08;;;;;;;7.57;4.93;;;;;;;;;;5107343;28;20031;-63
2022/07/02 04:08:34;;;;;;;11.85;6.03;;;;;;;;;;5111868;28;20031;-63
2022/07/02 04:11:01;;;;;;;7.93;5.55;;;;;;;;;;5097780;28;20051;-63
2022/07/02 04:13:27;;;;;;;9.32;5.88;;;;;;;;;;5106155;28;20048;-63
2022/07/02 04:15:55;;;;;;;12.35;7.72;;;;;;;;;;5109137;28;20047;-63
2022/07/02 04:18:21;;;;;;;11.43;6.80;;;;;;;;;;5098150;28;20817;-63
2022/07/02 04:20:47;;;;;;;13.73;5.88;;;;;;;;;;5105561;28;20114;-64
2022/07/02 04:23:14;;;;;;;9.75;5.40;;;;;;;;;;5102785;28;20096;-63
2022/07/02 04:25:40;;;;;;;17.05;6.25;;;;;;;;;;5100520;28;20070;-64
2022/07/02 04:28:07;;;;;;;8.07;5.43;;;;;;;;;;5102173;28;20185;-64
2022/07/02 04:30:33;;;;;;;12.02;7.05;;;;;;;;;;5105377;28;20047;-63
2022/07/02 04:32:59;;;;;;;9.85;5.47;;;;;;;;;;5104509;28;20420;-64
2022/07/02 04:35:25;;;;;;;10.32;5.75;;;;;;;;;;5104171;28;20042;-64
2022/07/02 04:37:52;;;;;;;10.00;6.40;;;;;;;;;;5108314;28;20035;-64
2022/07/02 04:40:18;;;;;;;10.25;6.20;;;;;;;;;;5103253;28;20051;-64
2022/07/02 04:42:44;;;;;;;9.57;5.32;;;;;;;;;;5102991;28;20040;-63
2022/07/02 04:45:10;;;;;;;13.85;5.57;;;;;;;;;;5102658;28;20067;-63
2022/07/02 04:47:36;;;;;;;15.35;5.65;;;;;;;;;;5112331;28;20039;-64
2022/07/02 04:50:03;;;;;;;7.25;5.53;;;;;;;;;;5108067;28;20036;-63
2022/07/02 04:52:29;;;;;;;8.57;5.80;;;;;;;;;;5109372;27;20281;-63
2022/07/02 04:54:55;;;;;;;8.43;5.72;;;;;;;;;;5114715;27;20446;-63
2022/07/02 04:57:21;;;;;;;9.13;5.32;;;;;;;;;;5112560;28;20043;-63
2022/07/02 04:59:47;;;;;;;8.43;4.32;;;;;;;;;;5109572;28;20505;-64
2022/07/02 05:02:14;;;;;;;8.88;5.90;;;;;;;;;;5112361;28;20466;-64
2022/07/02 05:04:40;;;;;;;9.82;5.95;;;;;;;;;;5109044;28;20039;-63
2022/07/02 05:07:07;;;;;;;8.70;4.65;;;;;;;;;;5112885;27;20508;-63
2022/07/02 05:09:33;;;;;;;9.20;4.60;;;;;;;;;;5113287;27;20409;-64
2022/07/02 05:12:00;;;;;;;7.80;4.70;;;;;;;;;;5109352;28;20043;-64
2022/07/02 05:14:27;;;;;;;9.48;4.68;;;;;;;;;;5114024;27;20039;-64
2022/07/02 05:16:53;;;;;;;7.85;4.68;;;;;;;;;;5105032;28;20560;-63
2022/07/02 05:19:19;;;;;;;6.85;4.57;;;;;;;;;;5099200;28;20036;-64
2022/07/02 05:21:45;;;;;;;9.88;4.28;;;;;;;;;;5107446;28;20043;-64
2022/07/02 05:24:11;;;;;;;11.50;4.97;;;;;;;;;;5095806;28;20501;-63
2022/07/02 05:26:38;;;;;;;11.25;4.40;;;;;;;;;;5092276;28;20095;-63
2022/07/02 05:29:04;;;;;;;8.02;4.65;;;;;;;;;;5101253;28;20043;-63
2022/07/02 05:31:30;;;;;;;10.05;5.18;;;;;;;;;;5097647;28;20040;-64
2022/07/02 05:33:56;;;;;;;10.27;4.20;;;;;;;;;;5099032;28;20539;-64
2022/07/02 05:36:22;;;;;;;8.32;4.30;;;;;;;;;;5098253;27;20036;-64
2022/07/02 05:38:48;;;;;;;9.38;4.85;;;;;;;;;;5098710;27;20063;-63
2022/07/02 05:41:15;;;;;;;8.63;4.93;;;;;;;;;;5102973;28;20047;-63
2022/07/02 05:43:41;;;;;;;8.93;4.50;;;;;;;;;;5103888;28;20040;-64
2022/07/02 05:46:07;;;;;;;11.07;4.55;;;;;;;;;;5107084;28;20431;-64
2022/07/02 05:48:36;;;;;;;15.40;4.35;;;;;;;;;;5106005;28;20040;-64
2022/07/02 05:51:02;;;;;;;9.15;4.75;;;;;;;;;;5108716;28;20071;-64
2022/07/02 05:53:28;;;;;;;7.20;4.40;;;;;;;;;;5100729;28;20489;-63
2022/07/02 05:55:54;;;;;;;11.45;5.78;;;;;;;;;;5106583;28;20092;-64
2022/07/02 05:58:20;;;;;;;8.43;4.68;;;;;;;;;;5104228;28;20069;-64
2022/07/02 06:00:46;;;;;;;9.73;4.30;;;;;;;;;;5108207;28;20481;-64
2022/07/02 06:03:12;;;;;;;7.53;4.50;;;;;;;;;;5097387;27;20505;-64
2022/07/02 06:08:24;;;;;;;10.30;3.50;;;;;;;;;;5099618;28;20071;-63
2022/07/02 06:10:50;;;;;;;8.32;3.88;;;;;;;;;;5110232;28;20522;-64
2022/07/02 06:13:16;;;;;;;21.60;3.40;;;;;;;;;;5107808;28;20036;-63
2022/07/02 06:15:42;;;;;;;6.50;3.33;;;;;;;;;;5110764;28;20093;-63
2022/07/02 06:18:08;;;;;;;11.50;3.40;;;;;;;;;;5103729;28;20114;-63
2022/07/02 06:20:35;;;;;;;7.35;3.28;;;;;;;;;;5110739;27;20073;-64
2022/07/02 06:23:01;;;;;;;7.28;3.60;;;;;;;;;;5101957;28;20043;-63
2022/07/02 06:25:27;;;;;;;7.85;3.25;;;;;;;;;;5107537;28;20118;-64
2022/07/02 06:27:53;;;;;;;5.38;2.80;;;;;;;;;;5090583;28;20039;-64
2022/07/02 06:30:19;;;;;;;5.63;2.90;;;;;;;;;;5093368;28;20039;-63
2022/07/02 06:32:48;;;;;;;9.02;2.58;;;;;;;;;;5105556;28;20047;-63
2022/07/02 06:35:14;;;;;;;5.85;3.10;;;;;;;;;;5100303;28;20122;-63
2022/07/02 06:37:40;;;;;;;8.85;3.00;;;;;;;;;;5108733;27;20043;-63
2022/07/02 06:40:07;;;;;;;6.55;2.60;;;;;;;;;;5096405;28;20060;-64
2022/07/02 06:42:33;;;;;;;7.80;2.25;;;;;;;;;;5095081;28;20043;-64
2022/07/02 06:44:59;;;;;;;4.35;2.05;;;;;;;;;;5094471;28;20031;-64
2022/07/02 06:47:27;;;;;;;3.63;1.80;;;;;;;;;;5091492;28;20035;-64
2022/07/02 06:49:54;;;;;;;3.72;1.70;;;;;;;;;;5096314;27;20040;-65
2022/07/02 06:52:20;;;;;;;7.82;1.88;;;;;;;;;;5094688;28;20031;-64
2022/07/02 06:54:46;;;;;;;6.40;1.67;;;;;;;;;;5096612;28;20130;-64
2022/07/02 06:57:13;;;;;;;3.70;1.50;;;;;;;;;;5090495;28;20584;-63
2022/07/02 06:59:39;;;;;;;5.47;2.47;;;;;;;;;;5092610;28;20074;-64
2022/07/02 07:02:06;;;;;;;4.65;1.88;;;;;;;;;;5090226;28;20031;-64
2022/07/02 07:04:34;;;;;;;5.85;1.88;;;;;;;;;;5097363;28;20159;-64
2022/07/02 07:07:04;;;;;;;6.93;2.00;;;;;;;;;;5097664;28;20075;-64
2022/07/02 07:09:30;;;;;;;4.00;1.90;;;;;;;;;;5099788;28;20055;-64
2022/07/02 07:11:57;;;;;;;3.03;1.55;;;;;;;;;;5101082;28;20035;-64
2022/07/02 07:14:23;;;;;;;4.60;1.70;;;;;;;;;;5096609;28;20504;-64
2022/07/02 07:16:49;;;;;;;3.58;1.52;;;;;;;;;;5106833;28;20030;-64
2022/07/02 07:19:15;;;;;;;4.85;1.98;;;;;;;;;;5110492;28;20027;-64
2022/07/02 07:21:42;;;;;;;5.57;1.77;;;;;;;;;;5098148;28;20575;-64
2022/07/02 07:24:08;;;;;;;3.42;2.40;;;;;;;;;;5100572;28;20043;-65
2022/07/02 07:26:35;;;;;;;4.30;1.85;;;;;;;;;;5090100;28;20123;-66
2022/07/02 07:29:02;;;;;;;5.57;2.17;;;;;;;;;;5073601;28;20489;-65
2022/07/02 07:31:28;;;;;;;5.10;2.00;;;;;;;;;;5095585;28;20048;-65
2022/07/02 07:33:55;;;;;;;5.53;1.80;;;;;;;;;;5094720;27;20044;-64
2022/07/02 07:36:22;;;;;;;4.60;2.20;;;;;;;;;;5106007;28;20035;-64
2022/07/02 07:38:49;;;;;;;3.13;1.40;;;;;;;;;;5108864;28;20055;-64
2022/07/02 07:41:15;;;;;;;4.85;1.52;;;;;;;;;;5106969;28;20075;-64
2022/07/02 07:43:42;;;;;;;3.75;1.80;;;;;;;;;;5107109;28;20075;-66
2022/07/02 07:46:08;;;;;;;7.97;1.85;;;;;;;;;;5105390;28;20039;-66
2022/07/02 07:48:34;;;;;;;7.00;2.35;;;;;;;;;;5094169;28;20535;-65
2022/07/02 07:51:00;;;;;;;5.85;2.15;;;;;;;;;;5096070;28;20129;-64
2022/07/02 07:53:27;;;;;;;2.67;1.67;;;;;;;;;;5100873;28;20035;-64
2022/07/02 07:55:53;;;;;;;6.80;2.35;;;;;;;;;;5099037;28;20064;-64
2022/07/02 07:58:19;;;;;;;12.13;2.92;;;;;;;;;;5104649;28;20042;-65
2022/07/02 08:00:48;;;;;;;9.45;3.42;;;;;;;;;;5108065;28;20200;-65
2022/07/02 08:03:17;;;;;;;4.00;1.45;;;;;;;;;;5088608;28;20409;-64
2022/07/02 08:05:43;;;;;;;5.22;1.77;;;;;;;;;;5100127;28;20108;-64
2022/07/02 08:08:09;;;;;;;2.90;1.75;;;;;;;;;;5105876;28;20024;-65
2022/07/02 08:10:35;;;;;;;4.68;1.88;;;;;;;;;;5099843;28;20055;-65
2022/07/02 08:13:01;;;;;;;3.67;1.60;;;;;;;;;;5111009;28;20050;-65
2022/07/02 08:15:28;;;;;;;4.40;1.58;;;;;;;;;;5093224;28;20035;-65
2022/07/02 08:17:54;;;;;;;7.85;1.70;;;;;;;;;;5104801;28;20051;-70
2022/07/02 08:20:20;;;;;;;4.25;1.52;;;;;;;;;;5103486;28;20338;-69
2022/07/02 08:22:49;;;;;;;4.18;1.75;;;;;;;;;;5098977;28;20042;-65
2022/07/02 08:25:15;;;;;;;2.45;1.55;;;;;;;;;;5109232;27;20028;-70
2022/07/02 08:27:42;;;;;;;4.90;1.33;;;;;;;;;;5104459;28;20099;-66
2022/07/02 08:30:08;;;;;;;4.53;1.67;;;;;;;;;;5111523;28;20127;-67
2022/07/02 08:32:34;;;;;;;7.32;1.95;;;;;;;;;;5110781;27;20035;-67
2022/07/02 08:35:01;;;;;;;3.45;1.27;;;;;;;;;;5104815;28;20044;-64
2022/07/02 08:37:27;;;;;;;4.90;1.40;;;;;;;;;;5103418;28;20039;-66
2022/07/02 08:39:54;;;;;;;6.60;1.60;;;;;;;;;;5103760;28;20135;-66
2022/07/02 08:42:25;;;;;;;4.13;1.80;;;;;;;;;;5097910;28;20111;-73
2022/07/02 08:44:53;;;;;;;4.77;1.90;;;;;;;;;;5108241;27;20667;-72
2022/07/02 08:47:19;;;;;;;4.18;1.42;;;;;;;;;;5104733;27;20651;-71
2022/07/02 08:49:47;;;;;;;5.30;2.17;;;;;;;;;;5117279;27;20527;-70
2022/07/02 08:52:15;;;;;;;4.43;1.50;;;;;;;;;;5106640;27;20589;-68
2022/07/02 08:54:41;;;;;;;7.80;1.85;;;;;;;;;;5099756;28;20101;-69
2022/07/02 08:57:09;;;;;;;3.63;1.70;;;;;;;;;;5108293;28;20031;-68
2022/07/02 08:59:35;;;;;;;3.03;1.88;;;;;;;;;;5117927;27;20466;-70
2022/07/02 09:02:01;;;;;;;5.85;1.27;;;;;;;;;;5114852;27;20043;-74
2022/07/02 09:04:28;;;;;;;3.55;1.20;;;;;;;;;;5111901;28;20032;-73
2022/07/02 09:06:58;;;;;;;5.28;1.60;;;;;;;;;;5093129;28;20035;-74
2022/07/02 09:09:25;;;;;;;7.35;1.70;;;;;;;;;;5110595;28;20042;-74
2022/07/02 09:11:51;;;;;;;3.28;1.83;;;;;;;;;;5102246;28;20101;-74
2022/07/02 09:14:18;;;;;;;4.53;1.42;;;;;;;;;;5099711;28;20067;-74
2022/07/02 09:16:44;;;;;;;4.38;1.73;;;;;;;;;;5109236;28;20058;-74
2022/07/02 09:19:10;;;;;;;5.43;2.00;;;;;;;;;;5119548;27;20110;-74
2022/07/02 09:21:40;;;;;;;5.63;1.75;;;;;;;;;;5118915;27;20036;-74
2022/07/02 09:24:07;;;;;;;2.78;1.45;;;;;;;;;;5099843;28;20085;-74
2022/07/02 09:26:33;;;;;;;7.20;1.70;;;;;;;;;;5105845;28;20099;-74
2022/07/02 09:29:00;;;;;;;2.72;1.30;;;;;;;;;;5111622;28;20035;-74
2022/07/02 09:31:27;;;;;;;2.45;1.33;;;;;;;;;;5108266;27;20122;-74
2022/07/02 09:33:53;;;;;;;4.53;1.40;;;;;;;;;;5107513;27;20047;-74
2022/07/02 09:36:20;;;;;;;5.75;1.55;;;;;;;;;;5104414;28;20040;-74
2022/07/02 09:38:48;;;;;;;3.90;1.42;;;;;;;;;;5107229;27;20074;-74
2022/07/02 09:41:20;;;;;;;3.90;1.60;;;;;;;;;;5109667;27;20055;-74
2022/07/02 09:43:51;;;;;;;3.53;1.50;;;;;;;;;;5099623;28;20116;-74
2022/07/02 09:46:18;;;;;;;4.15;1.55;;;;;;;;;;5096081;27;20552;-74
2022/07/02 09:48:45;;;;;;;2.88;1.50;;;;;;;;;;5102517;28;20038;-74
2022/07/02 09:51:12;;;;;;;3.17;1.42;;;;;;;;;;5108795;27;20255;-74
2022/07/02 09:53:51;;;;;;;5.20;1.33;;;;;;;;;;5108153;28;20076;-74
2022/07/02 09:56:17;;;;;;;5.93;1.48;;;;;;;;;;5102219;28;20039;-74
2022/07/02 09:58:44;;;;;;;2.58;1.35;;;;;;;;;;5113552;27;20249;-74
2022/07/02 10:01:12;;;;;;;3.78;1.48;;;;;;;;;;5108721;27;20051;-74
2022/07/02 10:03:56;;;;;;;3.60;1.67;;;;;;;;;;5105095;28;20413;-75
2022/07/02 10:06:22;;;;;;;2.95;1.23;;;;;;;;;;5105038;28;20040;-74
2022/07/02 10:08:48;;;;;;;3.42;1.20;;;;;;;;;;5105901;28;20031;-74
2022/07/02 10:11:15;;;;;;;2.97;1.13;;;;;;;;;;5107980;27;20131;-74
2022/07/02 10:13:41;;;;;;;4.28;1.60;;;;;;;;;;5105326;27;20075;-74
2022/07/02 10:16:13;;;;;;;4.88;2.00;;;;;;;;;;5106112;28;20229;-76
2022/07/02 10:18:40;;;;;;;4.28;1.67;;;;;;;;;;5104640;28;20040;-72
2022/07/02 10:21:07;;;;;;;5.10;1.27;;;;;;;;;;5105901;28;20158;-71
2022/07/02 10:23:34;;;;;;;2.05;1.00;;;;;;;;;;5105972;27;20512;-71
2022/07/02 10:26:01;;;;;;;4.30;1.50;;;;;;;;;;5106678;28;20072;-70
2022/07/02 10:28:27;;;;;;;4.65;1.38;;;;;;;;;;5106119;28;20046;-69
2022/07/02 10:30:54;;;;;;;4.07;1.50;;;;;;;;;;5102854;27;20066;-68
2022/07/02 10:33:39;;;;;;;3.53;1.20;;;;;;;;;;5106870;28;20047;-69
2022/07/02 10:36:08;;;;;;;3.15;1.25;;;;;;;;;;5104659;28;20039;-67
2022/07/02 10:38:35;;;;;;;2.15;0.88;;;;;;;;;;5105752;28;20055;-66
2022/07/02 10:41:02;;;;;;;4.32;1.38;;;;;;;;;;5105915;27;20048;-67
2022/07/02 10:43:30;;;;;;;3.10;1.25;;;;;;;;;;5100710;28;20084;-66
2022/07/02 10:46:13;;;;;;;2.50;1.25;;;;;;;;;;5094966;27;20047;-67
2022/07/02 10:48:50;;;;;;;2.17;1.13;;;;;;;;;;5097875;28;20046;-66
2022/07/02 10:51:19;;;;;;;2.92;1.20;;;;;;;;;;5102876;28;20122;-66
2022/07/02 10:53:49;;;;;;;3.88;1.58;;;;;;;;;;5101944;27;20193;-66
2022/07/02 10:56:15;;;;;;;4.32;1.40;;;;;;;;;;5097773;28;20047;-67
2022/07/02 10:58:41;;;;;;;4.00;1.40;;;;;;;;;;5101370;28;20039;-67
2022/07/02 11:01:12;;;;;;;5.10;1.10;;;;;;;;;;5101869;28;20121;-66
2022/07/02 11:03:38;;;;;;;2.13;1.15;;;;;;;;;;5099323;28;20392;-67
2022/07/02 11:06:15;;;;;;;4.82;1.38;;;;;;;;;;5104724;28;20581;-67
2022/07/02 11:08:43;;;;;;;5.97;1.52;;;;;;;;;;5101706;28;20055;-67
2022/07/02 11:11:10;;;;;;;3.25;1.20;;;;;;;;;;5101902;28;20043;-66
2022/07/02 11:13:47;;;;;;;5.28;1.45;;;;;;;;;;5104702;28;20221;-67
2022/07/02 11:16:17;;;;;;;2.05;1.00;;;;;;;;;;5101400;28;20043;-67
2022/07/02 11:18:45;;;;;;;2.42;1.20;;;;;;;;;;5103038;28;20043;-68
2022/07/02 11:21:12;;;;;;;2.95;1.45;;;;;;;;;;5105939;28;20039;-67
2022/07/02 11:23:39;;;;;;;3.22;1.10;;;;;;;;;;5091734;28;20036;-67
2022/07/02 11:26:07;;;;;;;6.25;1.42;;;;;;;;;;5084805;28;20502;-68
2022/07/02 11:28:34;;;;;;;2.83;1.30;;;;;;;;;;5104314;27;20104;-67
2022/07/02 11:31:04;;;;;;;3.15;1.48;;;;;;;;;;5103529;27;20035;-68
2022/07/02 11:33:31;;;;;;;5.35;1.33;;;;;;;;;;5103036;27;20040;-69
2022/07/02 11:35:57;;;;;;;2.90;1.70;;;;;;;;;;5107638;28;20382;-68
2022/07/02 11:38:23;;;;;;;3.70;1.38;;;;;;;;;;5108604;28;20048;-68
2022/07/02 11:40:50;;;;;;;4.68;1.33;;;;;;;;;;5109361;28;20047;-68
2022/07/02 11:43:16;;;;;;;2.63;0.90;;;;;;;;;;5108572;28;20043;-68
2022/07/02 11:45:51;;;;;;;4.20;1.33;;;;;;;;;;5109623;27;20048;-68
2022/07/02 11:48:19;;;;;;;2.40;1.45;;;;;;;;;;5092793;28;20647;-68
2022/07/02 11:50:54;;;;;;;2.83;1.10;;;;;;;;;;5113295;27;20513;-67
2022/07/02 11:53:21;;;;;;;2.45;0.70;;;;;;;;;;5094581;28;20156;-68
2022/07/02 11:55:47;;;;;;;4.22;1.33;;;;;;;;;;5106703;28;20039;-68
2022/07/02 11:58:13;;;;;;;4.65;1.30;;;;;;;;;;5101423;28;20497;-68
2022/07/02 12:00:39;;;;;;;4.78;1.17;;;;;;;;;;5105958;28;20061;-67
2022/07/02 12:03:09;;;;;;;2.20;1.25;;;;;;;;;;5104310;28;20032;-68
2022/07/02 12:05:35;;;;;;;1.60;1.00;;;;;;;;;;5113473;28;20463;-68
2022/07/02 12:08:02;;;;;;;2.78;1.50;;;;;;;;;;5076743;28;20272;-68
2022/07/02 12:10:29;;;;;;;1.50;1.00;;;;;;;;;;5100110;28;20039;-68
2022/07/02 12:12:55;;;;;;;2.83;1.20;;;;;;;;;;5101714;28;20296;-68
2022/07/02 12:15:22;;;;;;;8.43;1.55;;;;;;;;;;5101638;28;20140;-68
2022/07/02 12:17:49;;;;;;;2.33;0.80;;;;;;;;;;5103751;28;20389;-68
2022/07/02 12:20:16;;;;;;;1.98;1.50;;;;;;;;;;5100016;28;20428;-68
2022/07/02 12:22:42;;;;;;;3.03;1.27;;;;;;;;;;5101019;28;20068;-68
2022/07/02 12:25:09;;;;;;;2.25;0.90;;;;;;;;;;5099044;28;20048;-68
2022/07/02 12:27:36;;;;;;;2.65;1.23;;;;;;;;;;5099107;28;20043;-68
2022/07/02 12:30:14;;;;;;;1.67;1.10;;;;;;;;;;5094026;28;20486;-68
2022/07/02 12:32:41;;;;;;;1.25;0.90;;;;;;;;;;5107666;28;20521;-67
2022/07/02 12:35:10;;;;;;;1.45;0.93;;;;;;;;;;5099532;28;20036;-67
2022/07/02 12:37:42;;;;;;;2.85;1.10;;;;;;;;;;5102270;28;20040;-69
2022/07/02 12:40:19;;;;;;;3.25;0.90;;;;;;;;;;5099390;28;20051;-68
2022/07/02 12:42:45;;;;;;;3.15;0.95;;;;;;;;;;5100959;28;20233;-68
2022/07/02 12:45:33;;;;;;;7.60;1.45;;;;;;;;;;5094679;28;20046;-68
2022/07/02 12:48:00;;;;;;;2.60;0.80;;;;;;;;;;5103478;28;20262;-67
2022/07/02 12:50:28;;;;;;;2.00;0.98;;;;;;;;;;5105299;28;20112;-68
2022/07/02 12:52:55;;;;;;;2.08;0.80;;;;;;;;;;5106812;28;20052;-65
2022/07/02 12:55:21;;;;;;;2.97;1.88;;;;;;;;;;5102525;28;20404;-68
2022/07/02 12:57:47;;;;;;;3.10;0.98;;;;;;;;;;5099390;28;20047;-69
2022/07/02 13:00:13;;;;;;;2.78;0.98;;;;;;;;;;5101852;28;20505;-70
2022/07/02 13:02:40;;;;;;;1.98;1.10;;;;;;;;;;5109897;27;20090;-70
2022/07/02 13:05:06;;;;;;;3.42;1.30;;;;;;;;;;5102508;28;20500;-69
2022/07/02 13:07:32;;;;;;;2.30;0.90;;;;;;;;;;5106129;28;20119;-69
2022/07/02 13:09:58;;;;;;;3.78;1.17;;;;;;;;;;5108882;28;20039;-68
2022/07/02 13:12:24;;;;;;;7.38;1.10;;;;;;;;;;5103643;28;20065;-69
2022/07/02 13:14:50;;;;;;;2.00;0.82;;;;;;;;;;5111196;28;20043;-68
2022/07/02 13:17:17;;;;;;;4.35;1.15;;;;;;;;;;5119775;27;20460;-69
2022/07/02 13:19:44;;;;;;;1.83;1.00;;;;;;;;;;5106795;28;20236;-68
2022/07/02 13:22:14;;;;;;;4.10;0.90;;;;;;;;;;5109939;28;20088;-68
2022/07/02 13:24:45;;;;;;;2.38;0.82;;;;;;;;;;5106281;28;20043;-68
2022/07/02 13:27:11;;;;;;;3.53;0.75;;;;;;;;;;5107775;28;20078;-68
2022/07/02 13:29:37;;;;;;;1.25;0.93;;;;;;;;;;5098086;28;20036;-68
2022/07/02 13:32:04;;;;;;;5.00;0.80;;;;;;;;;;5108588;27;20059;-68
2022/07/02 13:34:31;;;;;;;2.35;0.70;;;;;;;;;;5104244;28;20032;-68
2022/07/02 13:36:57;;;;;;;4.15;1.60;;;;;;;;;;5106588;28;20048;-69
2022/07/02 13:39:23;;;;;;;1.38;0.63;;;;;;;;;;5098336;28;20396;-68
2022/07/02 13:41:52;;;;;;;1.48;0.80;;;;;;;;;;5087100;28;20089;-69
2022/07/02 13:44:19;;;;;;;1.85;0.98;;;;;;;;;;5104888;28;20481;-69
2022/07/02 13:46:45;;;;;;;1.65;0.80;;;;;;;;;;5103196;27;20032;-69
2022/07/02 13:49:11;;;;;;;2.72;1.20;;;;;;;;;;5101499;28;20039;-69
2022/07/02 13:51:37;;;;;;;2.45;1.15;;;;;;;;;;5100872;28;20485;-69
2022/07/02 13:54:03;;;;;;;1.80;1.20;;;;;;;;;;5105266;28;20118;-69
2022/07/02 13:56:30;;;;;;;27.85;19.27;;;;;;;;;;5100091;28;20127;-69
2022/07/02 13:58:56;;;;;;;7.60;3.20;;;;;;;;;;5107546;28;20050;-69
2022/07/02 14:01:24;;;;;;;2.75;1.30;;;;;;;;;;5108093;28;20047;-69
2022/07/02 14:03:51;;;;;;;2.13;1.00;;;;;;;;;;5102575;28;20558;-65
2022/07/02 14:06:17;;;;;;;1.58;0.90;;;;;;;;;;5102374;28;20510;-67
2022/07/02 14:08:43;;;;;;;4.00;0.95;;;;;;;;;;5103675;28;20031;-66
2022/07/02 14:11:11;;;;;;;2.17;0.60;;;;;;;;;;5099693;28;20145;-66
2022/07/02 14:13:37;;;;;;;2.00;0.90;;;;;;;;;;5094028;28;20386;-66
2022/07/02 14:16:03;;;;;;;1.88;0.80;;;;;;;;;;5103488;27;20559;-68
2022/07/02 14:18:29;;;;;;;1.50;0.88;;;;;;;;;;5100571;28;20044;-66
2022/07/02 14:20:56;;;;;;;4.07;1.55;;;;;;;;;;5101400;28;20039;-66
2022/07/02 14:23:22;;;;;;;1.88;0.70;;;;;;;;;;5101202;28;20039;-66
2022/07/02 14:25:48;;;;;;;3.25;1.02;;;;;;;;;;5104906;28;20062;-67
2022/07/02 14:28:19;;;;;;;1.02;0.82;;;;;;;;;;5099973;28;20042;-66
2022/07/02 14:30:46;;;;;;;1.10;0.60;;;;;;;;;;5098570;28;20051;-66
2022/07/02 14:33:12;;;;;;;1.52;0.70;;;;;;;;;;5099727;28;20288;-66
2022/07/02 14:35:38;;;;;;;1.55;0.73;;;;;;;;;;5092639;28;20552;-67
2022/07/02 14:38:05;;;;;;;3.05;1.00;;;;;;;;;;5083201;28;20170;-69
2022/07/02 14:40:31;;;;;;;1.95;0.88;;;;;;;;;;5102543;27;20450;-70
2022/07/02 14:42:57;;;;;;;1.02;0.70;;;;;;;;;;5098472;28;20054;-69
2022/07/02 14:45:23;;;;;;;3.10;0.98;;;;;;;;;;5104788;28;20118;-69
2022/07/02 14:47:50;;;;;;;2.00;0.90;;;;;;;;;;5101677;28;20043;-69